sensor_id;sensor_type;location;lat;lon;timestamp;temperature;humidity
27423;DHT22;14878;50.778;0.258;2022-12-18T00:00:17;3.20;99.90
27423;DHT22;14878;50.778;0.258;2022-12-18T00:01:23;2.70;99.90
27423;DHT22;14878;50.778;0.258;2022-12-18T00:02:24;2.90;99.90
27423;DHT22;14878;50.778;0.258;2022-12-18T00:04:29;3.10;99.90
27423;DHT22;14878;50.778;0.258;2022-12-18T00:05:30;3.00;99.90
27423;DHT22;14878;50.778;0.258;2022-12-18T00:06:32;1.40;99.90
27423;DHT22;14878;50.778;0.258;2022-12-18T00:07:33;2.90;99.90
27423;DHT22;14878;50.778;0.258;2022-12-18T00:08:34;2.70;99.90
27423;DHT22;14878;50.778;0.258;2022-12-18T00:09:35;2.90;99.90
27423;DHT22;14878;50.778;0.258;2022-12-18T00:10:39;2.80;99.90
27423;DHT22;14878;50.778;0.258;2022-12-18T00:11:40;2.60;99.90
27423;DHT22;14878;50.778;0.258;2022-12-18T00:12:40;2.90;99.90
27423;DHT22;14878;50.778;0.258;2022-12-18T00:14:44;3.00;99.90
27423;DHT22;14878;50.778;0.258;2022-12-18T00:15:45;3.00;99.90
27423;DHT22;14878;50.778;0.258;2022-12-18T00:16:46;2.70;99.90
27423;DHT22;14878;50.778;0.258;2022-12-18T00:17:47;3.00;99.90
27423;DHT22;14878;50.778;0.258;2022-12-18T00:18:49;3.10;99.90
27423;DHT22;14878;50.778;0.258;2022-12-18T00:19:50;2.90;99.90
27423;DHT22;14878;50.778;0.258;2022-12-18T00:20:50;3.00;99.90
27423;DHT22;14878;50.778;0.258;2022-12-18T00:21:51;4.50;99.90
27423;DHT22;14878;50.778;0.258;2022-12-18T00:22:52;3.00;99.90
27423;DHT22;14878;50.778;0.258;2022-12-18T00:23:54;3.00;99.90
27423;DHT22;14878;50.778;0.258;2022-12-18T00:25:59;2.70;99.90
27423;DHT22;14878;50.778;0.258;2022-12-18T00:27:00;2.80;99.90
27423;DHT22;14878;50.778;0.258;2022-12-18T00:28:02;2.80;99.90
27423;DHT22;14878;50.778;0.258;2022-12-18T00:29:06;2.40;99.90
27423;DHT22;14878;50.778;0.258;2022-12-18T00:32:14;2.90;99.90
27423;DHT22;14878;50.778;0.258;2022-12-18T00:33:18;3.00;99.90
27423;DHT22;14878;50.778;0.258;2022-12-18T00:34:19;2.90;99.90
27423;DHT22;14878;50.778;0.258;2022-12-18T00:35:19;3.00;99.90
27423;DHT22;14878;50.778;0.258;2022-12-18T00:36:22;3.00;99.90
27423;DHT22;14878;50.778;0.258;2022-12-18T00:37:23;2.70;99.90
27423;DHT22;14878;50.778;0.258;2022-12-18T00:38:27;3.00;99.90
27423;DHT22;14878;50.778;0.258;2022-12-18T00:39:27;3.00;99.90
27423;DHT22;14878;50.778;0.258;2022-12-18T00:40:32;2.90;99.90
27423;DHT22;14878;50.778;0.258;2022-12-18T00:41:33;2.80;99.90
27423;DHT22;14878;50.778;0.258;2022-12-18T00:42:52;2.90;99.90
27423;DHT22;14878;50.778;0.258;2022-12-18T00:44:57;3.20;99.90
27423;DHT22;14878;50.778;0.258;2022-12-18T00:46:01;2.90;99.90
27423;DHT22;14878;50.778;0.258;2022-12-18T00:47:01;3.00;99.90
27423;DHT22;14878;50.778;0.258;2022-12-18T00:48:02;3.10;99.90
27423;DHT22;14878;50.778;0.258;2022-12-18T00:49:03;3.00;99.90
27423;DHT22;14878;50.778;0.258;2022-12-18T00:50:04;3.10;99.90
27423;DHT22;14878;50.778;0.258;2022-12-18T00:51:05;3.00;99.90
27423;DHT22;14878;50.778;0.258;2022-12-18T00:52:07;2.90;99.90
27423;DHT22;14878;50.778;0.258;2022-12-18T00:53:07;3.00;99.90
27423;DHT22;14878;50.778;0.258;2022-12-18T00:54:08;3.00;99.90
27423;DHT22;14878;50.778;0.258;2022-12-18T00:55:09;3.00;99.90
27423;DHT22;14878;50.778;0.258;2022-12-18T00:56:10;2.80;99.90
27423;DHT22;14878;50.778;0.258;2022-12-18T00:58:13;2.90;99.90
27423;DHT22;14878;50.778;0.258;2022-12-18T00:59:14;3.00;99.90
27423;DHT22;14878;50.778;0.258;2022-12-18T01:00:15;2.90;99.90
27423;DHT22;14878;50.778;0.258;2022-12-18T01:01:16;3.20;99.90
27423;DHT22;14878;50.778;0.258;2022-12-18T01:03:18;3.00;99.90
27423;DHT22;14878;50.778;0.258;2022-12-18T01:05:20;2.90;99.90
27423;DHT22;14878;50.778;0.258;2022-12-18T01:08:23;2.80;99.90
27423;DHT22;14878;50.778;0.258;2022-12-18T01:09:26;3.10;99.90
27423;DHT22;14878;50.778;0.258;2022-12-18T01:10:27;3.30;99.90
27423;DHT22;14878;50.778;0.258;2022-12-18T01:11:28;3.60;99.90
27423;DHT22;14878;50.778;0.258;2022-12-18T01:12:29;2.90;99.90
27423;DHT22;14878;50.778;0.258;2022-12-18T01:13:29;3.50;99.90
27423;DHT22;14878;50.778;0.258;2022-12-18T01:15:31;3.30;99.90
27423;DHT22;14878;50.778;0.258;2022-12-18T01:17:33;3.10;99.90
27423;DHT22;14878;50.778;0.258;2022-12-18T01:18:34;3.00;99.90
27423;DHT22;14878;50.778;0.258;2022-12-18T01:19:35;3.00;99.90
27423;DHT22;14878;50.778;0.258;2022-12-18T01:21:39;3.30;99.90
27423;DHT22;14878;50.778;0.258;2022-12-18T01:22:39;3.00;99.90
27423;DHT22;14878;50.778;0.258;2022-12-18T01:23:41;3.00;99.90
27423;DHT22;14878;50.778;0.258;2022-12-18T01:24:41;2.90;99.90
27423;DHT22;14878;50.778;0.258;2022-12-18T01:25:42;3.40;99.90
27423;DHT22;14878;50.778;0.258;2022-12-18T01:26:43;3.10;99.90
27423;DHT22;14878;50.778;0.258;2022-12-18T01:27:43;3.20;99.90
27423;DHT22;14878;50.778;0.258;2022-12-18T01:28:44;3.20;99.90
27423;DHT22;14878;50.778;0.258;2022-12-18T01:30:46;3.40;99.90
27423;DHT22;14878;50.778;0.258;2022-12-18T01:31:46;3.20;99.90
27423;DHT22;14878;50.778;0.258;2022-12-18T01:32:47;3.00;99.90
27423;DHT22;14878;50.778;0.258;2022-12-18T01:33:49;3.50;99.90
27423;DHT22;14878;50.778;0.258;2022-12-18T01:34:49;5.40;99.90
27423;DHT22;14878;50.778;0.258;2022-12-18T01:36:51;3.60;99.90
27423;DHT22;14878;50.778;0.258;2022-12-18T01:37:55;3.00;99.90
27423;DHT22;14878;50.778;0.258;2022-12-18T01:40:03;3.60;99.90
27423;DHT22;14878;50.778;0.258;2022-12-18T01:41:04;3.10;99.90
27423;DHT22;14878;50.778;0.258;2022-12-18T01:42:12;3.20;99.90
27423;DHT22;14878;50.778;0.258;2022-12-18T01:43:13;3.10;99.90
27423;DHT22;14878;50.778;0.258;2022-12-18T01:45:21;3.40;99.90
27423;DHT22;14878;50.778;0.258;2022-12-18T01:47:03;3.40;99.90
27423;DHT22;14878;50.778;0.258;2022-12-18T01:48:09;3.30;99.90
27423;DHT22;14878;50.778;0.258;2022-12-18T01:52:38;3.20;99.90
27423;DHT22;14878;50.778;0.258;2022-12-18T01:53:41;3.30;99.90
27423;DHT22;14878;50.778;0.258;2022-12-18T01:54:43;3.30;99.90
27423;DHT22;14878;50.778;0.258;2022-12-18T01:55:50;3.00;99.90
27423;DHT22;14878;50.778;0.258;2022-12-18T01:56:51;3.40;99.90
27423;DHT22;14878;50.778;0.258;2022-12-18T01:57:54;3.30;99.90
27423;DHT22;14878;50.778;0.258;2022-12-18T01:59:06;3.10;99.90
27423;DHT22;14878;50.778;0.258;2022-12-18T02:00:14;3.00;99.90
27423;DHT22;14878;50.778;0.258;2022-12-18T02:01:15;3.10;99.90
27423;DHT22;14878;50.778;0.258;2022-12-18T02:02:17;3.10;99.90
27423;DHT22;14878;50.778;0.258;2022-12-18T02:03:18;3.00;99.90
27423;DHT22;14878;50.778;0.258;2022-12-18T02:04:26;3.10;99.90
27423;DHT22;14878;50.778;0.258;2022-12-18T02:06:58;3.00;99.90
27423;DHT22;14878;50.778;0.258;2022-12-18T02:09:20;3.10;99.90
27423;DHT22;14878;50.778;0.258;2022-12-18T02:13:19;3.10;99.90
27423;DHT22;14878;50.778;0.258;2022-12-18T02:15:51;3.30;99.90
27423;DHT22;14878;50.778;0.258;2022-12-18T02:18:23;3.80;99.90
27423;DHT22;14878;50.778;0.258;2022-12-18T02:20:23;3.60;99.90
27423;DHT22;14878;50.778;0.258;2022-12-18T02:25:28;3.00;99.90
27423;DHT22;14878;50.778;0.258;2022-12-18T02:26:43;3.30;99.90
27423;DHT22;14878;50.778;0.258;2022-12-18T02:27:47;3.10;99.90
27423;DHT22;14878;50.778;0.258;2022-12-18T02:28:56;3.20;99.90
27423;DHT22;14878;50.778;0.258;2022-12-18T02:30:02;3.20;99.90
27423;DHT22;14878;50.778;0.258;2022-12-18T02:31:06;3.00;99.90
27423;DHT22;14878;50.778;0.258;2022-12-18T02:32:16;3.90;99.90
27423;DHT22;14878;50.778;0.258;2022-12-18T02:33:19;3.20;99.90
27423;DHT22;14878;50.778;0.258;2022-12-18T02:34:24;3.20;99.90
27423;DHT22;14878;50.778;0.258;2022-12-18T02:36:32;3.20;99.90
27423;DHT22;14878;50.778;0.258;2022-12-18T02:37:34;3.30;99.90
27423;DHT22;14878;50.778;0.258;2022-12-18T02:38:36;2.80;99.90
27423;DHT22;14878;50.778;0.258;2022-12-18T02:39:39;3.10;99.90
27423;DHT22;14878;50.778;0.258;2022-12-18T02:40:42;3.30;99.90
27423;DHT22;14878;50.778;0.258;2022-12-18T02:41:43;3.10;99.90
27423;DHT22;14878;50.778;0.258;2022-12-18T02:42:44;3.20;99.90
27423;DHT22;14878;50.778;0.258;2022-12-18T02:43:49;3.10;99.90
27423;DHT22;14878;50.778;0.258;2022-12-18T02:44:54;3.30;99.90
27423;DHT22;14878;50.778;0.258;2022-12-18T02:46:00;3.30;99.90
27423;DHT22;14878;50.778;0.258;2022-12-18T02:47:02;3.10;99.90
27423;DHT22;14878;50.778;0.258;2022-12-18T02:48:03;3.10;99.90
27423;DHT22;14878;50.778;0.258;2022-12-18T02:51:50;3.40;99.90
27423;DHT22;14878;50.778;0.258;2022-12-18T02:57:02;3.00;99.90
27423;DHT22;14878;50.778;0.258;2022-12-18T02:59:41;3.30;99.90
27423;DHT22;14878;50.778;0.258;2022-12-18T03:02:26;3.00;99.90
27423;DHT22;14878;50.778;0.258;2022-12-18T03:05:21;3.10;99.90
27423;DHT22;14878;50.778;0.258;2022-12-18T03:07:39;3.20;99.90
27423;DHT22;14878;50.778;0.258;2022-12-18T03:08:45;3.40;99.90
27423;DHT22;14878;50.778;0.258;2022-12-18T03:09:50;3.10;99.90
27423;DHT22;14878;50.778;0.258;2022-12-18T03:12:20;3.40;99.90
27423;DHT22;14878;50.778;0.258;2022-12-18T03:13:49;3.60;99.90
27423;DHT22;14878;50.778;0.258;2022-12-18T03:15:59;2.90;99.90
27423;DHT22;14878;50.778;0.258;2022-12-18T03:17:05;3.20;99.90
27423;DHT22;14878;50.778;0.258;2022-12-18T03:18:30;3.40;99.90
27423;DHT22;14878;50.778;0.258;2022-12-18T03:19:32;3.10;99.90
27423;DHT22;14878;50.778;0.258;2022-12-18T03:20:36;3.70;99.90
27423;DHT22;14878;50.778;0.258;2022-12-18T03:21:43;3.40;99.90
27423;DHT22;14878;50.778;0.258;2022-12-18T03:22:47;3.40;99.90
27423;DHT22;14878;50.778;0.258;2022-12-18T03:26:00;3.20;99.90
27423;DHT22;14878;50.778;0.258;2022-12-18T03:27:03;3.90;99.90
27423;DHT22;14878;50.778;0.258;2022-12-18T03:29:16;3.20;99.90
27423;DHT22;14878;50.778;0.258;2022-12-18T03:30:18;3.30;99.90
27423;DHT22;14878;50.778;0.258;2022-12-18T03:31:23;3.50;99.90
27423;DHT22;14878;50.778;0.258;2022-12-18T03:32:28;3.20;99.90
27423;DHT22;14878;50.778;0.258;2022-12-18T03:33:37;3.20;99.90
27423;DHT22;14878;50.778;0.258;2022-12-18T03:34:40;3.50;99.90
27423;DHT22;14878;50.778;0.258;2022-12-18T03:35:43;2.90;99.90
27423;DHT22;14878;50.778;0.258;2022-12-18T03:36:43;3.40;99.90
27423;DHT22;14878;50.778;0.258;2022-12-18T03:38:45;3.40;99.90
27423;DHT22;14878;50.778;0.258;2022-12-18T03:42:48;3.20;99.90
27423;DHT22;14878;50.778;0.258;2022-12-18T03:44:20;3.40;99.90
27423;DHT22;14878;50.778;0.258;2022-12-18T03:45:36;3.30;99.90
27423;DHT22;14878;50.778;0.258;2022-12-18T03:47:10;3.50;99.90
27423;DHT22;14878;50.778;0.258;2022-12-18T03:48:48;3.30;99.90
27423;DHT22;14878;50.778;0.258;2022-12-18T03:52:49;3.20;99.90
27423;DHT22;14878;50.778;0.258;2022-12-18T03:53:57;3.20;99.90
27423;DHT22;14878;50.778;0.258;2022-12-18T03:54:59;3.30;99.90
27423;DHT22;14878;50.778;0.258;2022-12-18T03:56:02;3.40;99.90
27423;DHT22;14878;50.778;0.258;2022-12-18T03:57:09;3.30;99.90
27423;DHT22;14878;50.778;0.258;2022-12-18T03:58:13;3.30;99.90
27423;DHT22;14878;50.778;0.258;2022-12-18T03:59:16;3.20;99.90
27423;DHT22;14878;50.778;0.258;2022-12-18T04:00:19;3.30;99.90
27423;DHT22;14878;50.778;0.258;2022-12-18T04:01:23;3.20;99.90
27423;DHT22;14878;50.778;0.258;2022-12-18T04:02:26;3.20;99.90
27423;DHT22;14878;50.778;0.258;2022-12-18T04:03:28;3.30;99.90
27423;DHT22;14878;50.778;0.258;2022-12-18T04:04:30;3.30;99.90
27423;DHT22;14878;50.778;0.258;2022-12-18T04:05:33;3.60;99.90
27423;DHT22;14878;50.778;0.258;2022-12-18T04:06:35;3.30;99.90
27423;DHT22;14878;50.778;0.258;2022-12-18T04:07:37;3.50;99.90
27423;DHT22;14878;50.778;0.258;2022-12-18T04:08:39;3.40;99.90
27423;DHT22;14878;50.778;0.258;2022-12-18T04:09:41;3.60;99.90
27423;DHT22;14878;50.778;0.258;2022-12-18T04:10:43;3.40;99.90
27423;DHT22;14878;50.778;0.258;2022-12-18T04:11:45;3.30;99.90
27423;DHT22;14878;50.778;0.258;2022-12-18T04:13:47;3.20;99.90
27423;DHT22;14878;50.778;0.258;2022-12-18T04:14:48;4.00;99.90
27423;DHT22;14878;50.778;0.258;2022-12-18T04:15:48;3.20;99.90
27423;DHT22;14878;50.778;0.258;2022-12-18T04:16:49;3.80;99.90
27423;DHT22;14878;50.778;0.258;2022-12-18T04:20:53;3.30;99.90
27423;DHT22;14878;50.778;0.258;2022-12-18T04:21:54;3.30;99.90
27423;DHT22;14878;50.778;0.258;2022-12-18T04:22:55;3.30;99.90
27423;DHT22;14878;50.778;0.258;2022-12-18T04:23:56;3.20;99.90
27423;DHT22;14878;50.778;0.258;2022-12-18T04:24:56;3.70;99.90
27423;DHT22;14878;50.778;0.258;2022-12-18T04:25:57;3.40;99.90
27423;DHT22;14878;50.778;0.258;2022-12-18T04:27:59;3.60;99.90
27423;DHT22;14878;50.778;0.258;2022-12-18T04:28:59;3.40;99.90
27423;DHT22;14878;50.778;0.258;2022-12-18T04:30:00;3.40;99.90
27423;DHT22;14878;50.778;0.258;2022-12-18T04:32:02;3.50;99.90
27423;DHT22;14878;50.778;0.258;2022-12-18T04:33:03;3.30;99.90
27423;DHT22;14878;50.778;0.258;2022-12-18T04:34:04;3.40;99.90
27423;DHT22;14878;50.778;0.258;2022-12-18T04:35:05;3.20;99.90
27423;DHT22;14878;50.778;0.258;2022-12-18T04:36:10;3.30;99.90
27423;DHT22;14878;50.778;0.258;2022-12-18T04:37:12;3.20;99.90
27423;DHT22;14878;50.778;0.258;2022-12-18T04:38:13;3.70;99.90
27423;DHT22;14878;50.778;0.258;2022-12-18T04:39:18;3.40;99.90
27423;DHT22;14878;50.778;0.258;2022-12-18T04:41:20;3.40;99.90
27423;DHT22;14878;50.778;0.258;2022-12-18T04:42:21;3.40;99.90
27423;DHT22;14878;50.778;0.258;2022-12-18T04:44:23;3.30;99.90
27423;DHT22;14878;50.778;0.258;2022-12-18T04:47:25;3.70;99.90
27423;DHT22;14878;50.778;0.258;2022-12-18T04:48:26;3.10;99.90
27423;DHT22;14878;50.778;0.258;2022-12-18T04:49:27;3.80;99.90
27423;DHT22;14878;50.778;0.258;2022-12-18T04:50:27;3.50;99.90
27423;DHT22;14878;50.778;0.258;2022-12-18T04:51:28;3.30;99.90
27423;DHT22;14878;50.778;0.258;2022-12-18T04:52:29;3.30;99.90
27423;DHT22;14878;50.778;0.258;2022-12-18T04:53:29;3.50;99.90
27423;DHT22;14878;50.778;0.258;2022-12-18T04:55:31;3.30;99.90
27423;DHT22;14878;50.778;0.258;2022-12-18T04:56:32;3.60;99.90
27423;DHT22;14878;50.778;0.258;2022-12-18T04:57:32;3.50;99.90
27423;DHT22;14878;50.778;0.258;2022-12-18T04:58:33;3.50;99.90
27423;DHT22;14878;50.778;0.258;2022-12-18T04:59:34;3.90;99.90
27423;DHT22;14878;50.778;0.258;2022-12-18T05:00:35;3.60;99.90
27423;DHT22;14878;50.778;0.258;2022-12-18T05:02:37;3.30;99.90
27423;DHT22;14878;50.778;0.258;2022-12-18T05:03:38;3.50;99.90
27423;DHT22;14878;50.778;0.258;2022-12-18T05:04:39;3.60;99.90
27423;DHT22;14878;50.778;0.258;2022-12-18T05:05:39;3.50;99.90
27423;DHT22;14878;50.778;0.258;2022-12-18T05:06:40;3.50;99.90
27423;DHT22;14878;50.778;0.258;2022-12-18T05:07:41;3.60;99.90
27423;DHT22;14878;50.778;0.258;2022-12-18T05:08:41;3.70;99.90
27423;DHT22;14878;50.778;0.258;2022-12-18T05:10:43;3.60;99.90
27423;DHT22;14878;50.778;0.258;2022-12-18T05:11:44;3.70;99.90
27423;DHT22;14878;50.778;0.258;2022-12-18T05:12:45;3.80;99.90
27423;DHT22;14878;50.778;0.258;2022-12-18T05:14:03;3.80;99.90
27423;DHT22;14878;50.778;0.258;2022-12-18T05:15:04;3.70;99.90
27423;DHT22;14878;50.778;0.258;2022-12-18T05:16:05;3.60;99.90
27423;DHT22;14878;50.778;0.258;2022-12-18T05:17:06;3.80;99.90
27423;DHT22;14878;50.778;0.258;2022-12-18T05:18:07;3.90;99.90
27423;DHT22;14878;50.778;0.258;2022-12-18T05:21:10;3.70;99.90
27423;DHT22;14878;50.778;0.258;2022-12-18T05:22:11;3.60;99.90
27423;DHT22;14878;50.778;0.258;2022-12-18T05:24:13;3.90;99.90
27423;DHT22;14878;50.778;0.258;2022-12-18T05:26:17;3.90;99.90
27423;DHT22;14878;50.778;0.258;2022-12-18T05:27:18;3.80;99.90
27423;DHT22;14878;50.778;0.258;2022-12-18T05:28:22;3.60;99.90
27423;DHT22;14878;50.778;0.258;2022-12-18T05:29:22;3.80;99.90
27423;DHT22;14878;50.778;0.258;2022-12-18T05:30:23;3.90;99.90
27423;DHT22;14878;50.778;0.258;2022-12-18T05:31:24;3.70;99.90
27423;DHT22;14878;50.778;0.258;2022-12-18T05:32:24;3.70;99.90
27423;DHT22;14878;50.778;0.258;2022-12-18T05:33:28;3.70;99.90
27423;DHT22;14878;50.778;0.258;2022-12-18T05:35:30;3.70;99.90
27423;DHT22;14878;50.778;0.258;2022-12-18T05:37:32;5.70;99.90
27423;DHT22;14878;50.778;0.258;2022-12-18T05:38:34;3.80;99.90
27423;DHT22;14878;50.778;0.258;2022-12-18T05:39:35;3.90;99.90
27423;DHT22;14878;50.778;0.258;2022-12-18T05:40:36;3.90;99.90
27423;DHT22;14878;50.778;0.258;2022-12-18T05:41:37;3.70;99.90
27423;DHT22;14878;50.778;0.258;2022-12-18T05:42:38;4.00;99.90
27423;DHT22;14878;50.778;0.258;2022-12-18T05:43:39;3.80;99.90
27423;DHT22;14878;50.778;0.258;2022-12-18T05:44:40;3.70;99.90
27423;DHT22;14878;50.778;0.258;2022-12-18T05:45:41;3.80;99.90
27423;DHT22;14878;50.778;0.258;2022-12-18T05:46:42;3.80;99.90
27423;DHT22;14878;50.778;0.258;2022-12-18T05:47:42;3.80;99.90
27423;DHT22;14878;50.778;0.258;2022-12-18T05:48:44;3.60;99.90
27423;DHT22;14878;50.778;0.258;2022-12-18T05:50:47;3.60;99.90
27423;DHT22;14878;50.778;0.258;2022-12-18T05:51:48;3.80;99.90
27423;DHT22;14878;50.778;0.258;2022-12-18T05:52:49;3.80;99.90
27423;DHT22;14878;50.778;0.258;2022-12-18T05:54:51;3.60;99.90
27423;DHT22;14878;50.778;0.258;2022-12-18T05:56:52;4.00;99.90
27423;DHT22;14878;50.778;0.258;2022-12-18T05:57:53;3.90;99.90
27423;DHT22;14878;50.778;0.258;2022-12-18T05:59:55;3.90;99.90
27423;DHT22;14878;50.778;0.258;2022-12-18T06:02:59;4.10;99.90
27423;DHT22;14878;50.778;0.258;2022-12-18T06:03:59;4.20;99.90
27423;DHT22;14878;50.778;0.258;2022-12-18T06:05:00;3.80;99.90
27423;DHT22;14878;50.778;0.258;2022-12-18T06:06:01;3.60;99.90
27423;DHT22;14878;50.778;0.258;2022-12-18T06:07:02;3.90;99.90
27423;DHT22;14878;50.778;0.258;2022-12-18T06:08:03;3.70;99.90
27423;DHT22;14878;50.778;0.258;2022-12-18T06:09:04;3.90;99.90
27423;DHT22;14878;50.778;0.258;2022-12-18T06:10:10;3.90;99.90
27423;DHT22;14878;50.778;0.258;2022-12-18T06:11:11;3.90;99.90
27423;DHT22;14878;50.778;0.258;2022-12-18T06:12:12;5.40;99.90
27423;DHT22;14878;50.778;0.258;2022-12-18T06:13:12;4.00;99.90
27423;DHT22;14878;50.778;0.258;2022-12-18T06:14:13;3.60;99.90
27423;DHT22;14878;50.778;0.258;2022-12-18T06:15:14;4.00;99.90
27423;DHT22;14878;50.778;0.258;2022-12-18T06:18:16;4.00;99.90
27423;DHT22;14878;50.778;0.258;2022-12-18T06:20:18;3.80;99.90
27423;DHT22;14878;50.778;0.258;2022-12-18T06:21:19;3.90;99.90
27423;DHT22;14878;50.778;0.258;2022-12-18T06:23:21;4.00;99.90
27423;DHT22;14878;50.778;0.258;2022-12-18T06:24:22;3.70;99.90
27423;DHT22;14878;50.778;0.258;2022-12-18T06:25:22;3.80;99.90
27423;DHT22;14878;50.778;0.258;2022-12-18T06:26:23;3.90;99.90
27423;DHT22;14878;50.778;0.258;2022-12-18T06:27:24;4.00;99.90
27423;DHT22;14878;50.778;0.258;2022-12-18T06:28:25;4.10;99.90
27423;DHT22;14878;50.778;0.258;2022-12-18T06:30:27;3.90;99.90
27423;DHT22;14878;50.778;0.258;2022-12-18T06:31:27;4.20;99.90
27423;DHT22;14878;50.778;0.258;2022-12-18T06:32:28;3.70;99.90
27423;DHT22;14878;50.778;0.258;2022-12-18T06:33:29;4.10;99.90
27423;DHT22;14878;50.778;0.258;2022-12-18T06:34:30;4.00;99.90
27423;DHT22;14878;50.778;0.258;2022-12-18T06:35:31;3.90;99.90
27423;DHT22;14878;50.778;0.258;2022-12-18T06:36:32;3.90;99.90
27423;DHT22;14878;50.778;0.258;2022-12-18T06:38:35;3.80;99.90
27423;DHT22;14878;50.778;0.258;2022-12-18T06:39:36;3.70;99.90
27423;DHT22;14878;50.778;0.258;2022-12-18T06:40:38;4.00;99.90
27423;DHT22;14878;50.778;0.258;2022-12-18T06:41:39;4.40;99.90
27423;DHT22;14878;50.778;0.258;2022-12-18T06:43:42;3.90;99.90
27423;DHT22;14878;50.778;0.258;2022-12-18T06:44:42;3.90;99.90
27423;DHT22;14878;50.778;0.258;2022-12-18T06:45:43;4.40;99.90
27423;DHT22;14878;50.778;0.258;2022-12-18T06:46:43;3.90;99.90
27423;DHT22;14878;50.778;0.258;2022-12-18T06:47:44;4.00;99.90
27423;DHT22;14878;50.778;0.258;2022-12-18T06:48:49;4.10;99.90
27423;DHT22;14878;50.778;0.258;2022-12-18T06:49:50;4.10;99.90
27423;DHT22;14878;50.778;0.258;2022-12-18T06:50:50;4.00;99.90
27423;DHT22;14878;50.778;0.258;2022-12-18T06:51:51;3.90;99.90
27423;DHT22;14878;50.778;0.258;2022-12-18T06:52:52;3.90;99.90
27423;DHT22;14878;50.778;0.258;2022-12-18T06:53:53;4.20;99.90
27423;DHT22;14878;50.778;0.258;2022-12-18T06:54:53;4.20;99.90
27423;DHT22;14878;50.778;0.258;2022-12-18T06:56:05;4.20;99.90
27423;DHT22;14878;50.778;0.258;2022-12-18T06:58:08;4.00;99.90
27423;DHT22;14878;50.778;0.258;2022-12-18T06:59:08;3.90;99.90
27423;DHT22;14878;50.778;0.258;2022-12-18T07:00:09;4.10;99.90
27423;DHT22;14878;50.778;0.258;2022-12-18T07:01:11;3.90;99.90
27423;DHT22;14878;50.778;0.258;2022-12-18T07:03:13;3.80;99.90
27423;DHT22;14878;50.778;0.258;2022-12-18T07:04:14;3.90;99.90
27423;DHT22;14878;50.778;0.258;2022-12-18T07:05:14;3.90;99.90
27423;DHT22;14878;50.778;0.258;2022-12-18T07:06:18;3.90;99.90
27423;DHT22;14878;50.778;0.258;2022-12-18T07:08:19;3.70;99.90
27423;DHT22;14878;50.778;0.258;2022-12-18T07:09:20;4.00;99.90
27423;DHT22;14878;50.778;0.258;2022-12-18T07:10:21;4.00;99.90
27423;DHT22;14878;50.778;0.258;2022-12-18T07:11:22;4.00;99.90
27423;DHT22;14878;50.778;0.258;2022-12-18T07:12:23;4.00;99.90
27423;DHT22;14878;50.778;0.258;2022-12-18T07:13:23;3.90;99.90
27423;DHT22;14878;50.778;0.258;2022-12-18T07:14:24;4.00;99.90
27423;DHT22;14878;50.778;0.258;2022-12-18T07:15:25;4.10;99.90
27423;DHT22;14878;50.778;0.258;2022-12-18T07:16:26;4.00;99.90
27423;DHT22;14878;50.778;0.258;2022-12-18T07:18:29;4.10;99.90
27423;DHT22;14878;50.778;0.258;2022-12-18T07:21:32;4.20;99.90
27423;DHT22;14878;50.778;0.258;2022-12-18T07:25:39;4.00;99.90
27423;DHT22;14878;50.778;0.258;2022-12-18T07:26:40;3.60;99.90
27423;DHT22;14878;50.778;0.258;2022-12-18T07:27:40;3.90;99.90
27423;DHT22;14878;50.778;0.258;2022-12-18T07:28:42;4.10;99.90
27423;DHT22;14878;50.778;0.258;2022-12-18T07:29:42;4.10;99.90
27423;DHT22;14878;50.778;0.258;2022-12-18T07:30:43;4.10;99.90
27423;DHT22;14878;50.778;0.258;2022-12-18T07:31:47;3.80;99.90
27423;DHT22;14878;50.778;0.258;2022-12-18T07:32:47;4.10;99.90
27423;DHT22;14878;50.778;0.258;2022-12-18T07:34:50;3.80;99.90
27423;DHT22;14878;50.778;0.258;2022-12-18T07:35:50;3.60;99.90
27423;DHT22;14878;50.778;0.258;2022-12-18T07:37:52;3.80;99.90
27423;DHT22;14878;50.778;0.258;2022-12-18T07:38:53;4.00;99.90
27423;DHT22;14878;50.778;0.258;2022-12-18T07:39:53;3.90;99.90
27423;DHT22;14878;50.778;0.258;2022-12-18T07:40:54;4.10;99.90
27423;DHT22;14878;50.778;0.258;2022-12-18T07:41:55;4.00;99.90
27423;DHT22;14878;50.778;0.258;2022-12-18T07:43:14;3.70;99.90
27423;DHT22;14878;50.778;0.258;2022-12-18T07:44:15;3.90;99.90
27423;DHT22;14878;50.778;0.258;2022-12-18T07:45:16;3.70;99.90
27423;DHT22;14878;50.778;0.258;2022-12-18T07:46:20;3.70;99.90
27423;DHT22;14878;50.778;0.258;2022-12-18T07:48:22;3.80;99.90
27423;DHT22;14878;50.778;0.258;2022-12-18T07:49:22;3.90;99.90
27423;DHT22;14878;50.778;0.258;2022-12-18T07:50:23;3.70;99.90
27423;DHT22;14878;50.778;0.258;2022-12-18T07:52:25;4.10;99.90
27423;DHT22;14878;50.778;0.258;2022-12-18T07:53:26;4.20;99.90
27423;DHT22;14878;50.778;0.258;2022-12-18T07:54:27;3.90;99.90
27423;DHT22;14878;50.778;0.258;2022-12-18T07:55:28;3.80;99.90
27423;DHT22;14878;50.778;0.258;2022-12-18T07:56:28;3.90;99.90
27423;DHT22;14878;50.778;0.258;2022-12-18T07:57:29;4.00;99.90
27423;DHT22;14878;50.778;0.258;2022-12-18T07:58:30;3.60;99.90
27423;DHT22;14878;50.778;0.258;2022-12-18T08:00:32;3.70;99.90
27423;DHT22;14878;50.778;0.258;2022-12-18T08:02:34;3.90;99.90
27423;DHT22;14878;50.778;0.258;2022-12-18T08:03:35;3.90;99.90
27423;DHT22;14878;50.778;0.258;2022-12-18T08:04:36;5.60;99.90
27423;DHT22;14878;50.778;0.258;2022-12-18T08:05:37;3.60;99.90
27423;DHT22;14878;50.778;0.258;2022-12-18T08:06:38;3.90;99.90
27423;DHT22;14878;50.778;0.258;2022-12-18T08:07:39;3.60;99.90
27423;DHT22;14878;50.778;0.258;2022-12-18T08:08:40;3.80;99.90
27423;DHT22;14878;50.778;0.258;2022-12-18T08:09:42;4.00;99.90
27423;DHT22;14878;50.778;0.258;2022-12-18T08:11:44;3.50;99.90
27423;DHT22;14878;50.778;0.258;2022-12-18T08:13:46;3.60;99.90
27423;DHT22;14878;50.778;0.258;2022-12-18T08:14:46;3.70;99.90
27423;DHT22;14878;50.778;0.258;2022-12-18T08:15:59;3.50;99.90
27423;DHT22;14878;50.778;0.258;2022-12-18T08:17:00;3.70;99.90
27423;DHT22;14878;50.778;0.258;2022-12-18T08:20:03;3.50;99.90
27423;DHT22;14878;50.778;0.258;2022-12-18T08:21:27;3.50;99.90
27423;DHT22;14878;50.778;0.258;2022-12-18T08:24:30;3.60;99.90
27423;DHT22;14878;50.778;0.258;2022-12-18T08:26:32;3.70;99.90
27423;DHT22;14878;50.778;0.258;2022-12-18T08:27:32;3.70;99.90
27423;DHT22;14878;50.778;0.258;2022-12-18T08:28:36;3.50;99.90
27423;DHT22;14878;50.778;0.258;2022-12-18T08:29:37;3.50;99.90
27423;DHT22;14878;50.778;0.258;2022-12-18T08:30:38;3.90;99.90
27423;DHT22;14878;50.778;0.258;2022-12-18T08:31:39;3.80;99.90
27423;DHT22;14878;50.778;0.258;2022-12-18T08:32:40;3.70;99.90
27423;DHT22;14878;50.778;0.258;2022-12-18T08:33:41;3.60;99.90
27423;DHT22;14878;50.778;0.258;2022-12-18T08:34:42;3.70;99.90
27423;DHT22;14878;50.778;0.258;2022-12-18T08:35:43;3.70;99.90
27423;DHT22;14878;50.778;0.258;2022-12-18T08:36:43;3.60;99.90
27423;DHT22;14878;50.778;0.258;2022-12-18T08:38:45;3.70;99.90
27423;DHT22;14878;50.778;0.258;2022-12-18T08:39:46;3.80;99.90